Time;durP1;ratioP1;P1;durP2;ratioP2;P2;SDS_P1;SDS_P2;PMS_P1;PMS_P2;Temp;Humidity;BMP_temperature;BMP_pressure;BME280_temperature;BME280_humidity;BME280_pressure;Samples;Min_cycle;Max_cycle;Signal;HPM_P1;HPM_P2
2022/06/10 00:01:57;;;;;;;5.82;2.58;;;12.80;99.90;;;;;;4785021;29;20096;-91
2022/06/10 00:04:23;;;;;;;7.50;2.15;;;12.20;99.90;;;;;;4787503;29;20614;-91
2022/06/10 00:06:51;;;;;;;7.03;2.72;;;12.80;99.90;;;;;;4783617;29;20539;-91
2022/06/10 00:09:17;;;;;;;7.53;2.35;;;12.80;99.90;;;;;;4785139;29;20083;-92
2022/06/10 00:11:46;;;;;;;5.30;2.40;;;12.80;99.90;;;;;;4784499;29;20058;-91
2022/06/10 00:14:11;;;;;;;5.82;2.70;;;12.80;99.90;;;;;;4784814;29;20081;-92
2022/06/10 00:16:38;;;;;;;7.70;2.28;;;12.70;99.90;;;;;;4782860;29;20473;-92
2022/06/10 00:19:10;;;;;;;6.07;2.53;;;12.30;99.90;;;;;;4784351;29;20081;-92
2022/06/10 00:21:36;;;;;;;5.72;2.22;;;12.70;99.90;;;;;;4782790;29;20050;-92
2022/06/10 00:24:02;;;;;;;6.00;2.50;;;12.70;99.90;;;;;;4783137;29;20054;-92
2022/06/10 00:26:28;;;;;;;6.88;2.20;;;12.70;99.90;;;;;;4784628;29;20097;-92
2022/06/10 00:28:54;;;;;;;5.85;2.55;;;12.70;99.90;;;;;;4782679;29;20507;-91
2022/06/10 00:31:20;;;;;;;6.15;2.70;;;12.70;99.90;;;;;;4782703;29;20050;-91
2022/06/10 00:33:46;;;;;;;6.47;2.40;;;12.70;99.90;;;;;;4783801;29;20058;-92
2022/06/10 00:36:27;;;;;;;6.22;2.53;;;12.70;99.90;;;;;;4787542;29;20114;-91
2022/06/10 00:38:57;;;;;;;;;;;12.60;99.90;;;;;;4806960;29;20053;-91
2022/06/10 00:41:23;;;;;;;7.63;2.30;;;12.70;99.90;;;;;;4782522;29;19920;-91
2022/06/10 00:43:49;;;;;;;7.28;2.80;;;12.60;99.90;;;;;;4797162;29;20055;-90
2022/06/10 00:46:19;;;;;;;7.30;2.45;;;12.60;99.90;;;;;;4783949;29;20141;-91
2022/06/10 00:49:07;;;;;;;9.40;2.60;;;12.60;99.90;;;;;;4798820;29;20090;-91
2022/06/10 00:51:48;;;;;;;7.75;2.88;;;12.60;99.90;;;;;;4799574;29;20050;-91
2022/06/10 00:54:27;;;;;;;8.25;2.45;;;12.60;99.90;;;;;;4801548;29;20103;-90
2022/06/10 00:57:03;;;;;;;7.13;2.45;;;12.50;99.90;;;;;;4811631;29;20503;-91
2022/06/10 00:59:34;;;;;;;7.15;2.22;;;12.50;99.90;;;;;;4827034;29;20079;-90
2022/06/10 01:02:08;;;;;;;6.90;2.33;;;12.50;99.90;;;;;;4815952;29;20542;-90
2022/06/10 01:04:36;;;;;;;7.75;2.70;;;12.50;99.90;;;;;;4812172;29;20057;-91
2022/06/10 01:07:03;;;;;;;6.10;2.40;;;12.50;99.90;;;;;;4797632;29;20062;-90
2022/06/10 01:09:30;;;;;;;8.20;2.70;;;12.40;99.90;;;;;;4797160;29;20064;-91
2022/06/10 01:12:01;;;;;;;8.15;2.97;;;12.40;99.90;;;;;;4768595;29;20050;-90
2022/06/10 01:14:56;;;;;;;5.63;2.67;;;12.40;99.90;;;;;;4808313;29;20050;-90
2022/06/10 01:17:35;;;;;;;6.03;2.65;;;12.50;99.90;;;;;;4793314;29;20050;-90
2022/06/10 01:20:25;;;;;;;4.82;2.50;;;12.50;99.90;;;;;;4808552;29;20104;-91
2022/06/10 01:22:54;;;;;;;7.50;2.72;;;12.40;99.90;;;;;;4808681;29;20055;-90
2022/06/10 01:25:20;;;;;;;5.57;2.70;;;12.40;99.90;;;;;;4811633;29;20042;-96
2022/06/10 01:27:59;;;;;;;8.23;2.78;;;12.40;99.90;;;;;;4812672;29;20042;-95
2022/06/10 01:30:39;;;;;;;7.72;3.08;;;12.40;99.90;;;;;;4798606;29;20145;-96
2022/06/10 01:33:25;;;;;;;8.77;2.65;;;12.40;99.90;;;;;;4812793;29;20050;-96
2022/06/10 01:36:20;;;;;;;8.13;3.10;;;12.40;99.90;;;;;;4812105;29;20050;-95
2022/06/10 01:39:18;;;;;;;8.93;2.90;;;12.30;99.90;;;;;;4797693;29;20191;-96
2022/06/10 01:42:04;;;;;;;8.23;3.17;;;12.40;99.90;;;;;;4795957;29;20114;-94
2022/06/10 01:45:06;;;;;;;8.25;3.00;;;12.30;99.90;;;;;;4796427;29;20065;-95
2022/06/10 01:47:38;;;;;;;6.35;2.67;;;12.30;99.90;;;;;;4812050;29;20047;-94
2022/06/10 01:50:16;;;;;;;6.75;2.72;;;12.30;99.90;;;;;;4812116;29;20102;-96
2022/06/10 01:53:03;;;;;;;9.38;2.85;;;12.30;99.90;;;;;;4796595;29;20054;-96
2022/06/10 01:55:45;;;;;;;9.25;3.17;;;12.30;99.90;;;;;;4796729;29;20447;-96
2022/06/10 01:58:28;;;;;;;6.97;2.75;;;12.30;99.90;;;;;;4811039;29;20062;-94
2022/06/10 02:01:03;;;;;;;10.35;3.28;;;12.20;99.90;;;;;;4797499;29;20054;-96
2022/06/10 02:03:46;;;;;;;4.40;2.85;;;12.20;99.90;;;;;;4796120;29;20054;-96
2022/06/10 02:06:22;;;;;;;12.27;3.63;;;12.10;99.90;;;;;;4810988;29;20046;-96
2022/06/10 02:09:00;;;;;;;6.70;3.38;;;13.20;99.90;;;;;;4797619;29;20111;-95
2022/06/10 02:11:26;;;;;;;9.57;3.03;;;12.00;99.90;;;;;;4797074;29;20071;-96
2022/06/10 02:13:55;;;;;;;7.40;3.60;;;12.00;99.90;;;;;;4796983;29;20086;-96
2022/06/10 02:16:31;;;;;;;6.97;2.75;;;12.00;99.90;;;;;;4796691;29;20057;-96
2022/06/10 02:19:06;;;;;;;6.55;2.90;;;12.00;99.90;;;;;;4795894;29;20047;-96
2022/06/10 02:21:46;;;;;;;;;;;11.90;99.90;;;;;;4812028;29;20054;-95
2022/06/10 02:24:24;;;;;;;9.07;3.45;;;11.90;99.90;;;;;;4796484;29;20362;-96
2022/06/10 02:26:52;;;;;;;7.65;3.08;;;11.80;99.90;;;;;;4806830;29;20041;-95
2022/06/10 02:29:36;;;;;;;9.07;3.75;;;11.70;99.90;;;;;;4801176;29;20059;-96
2022/06/10 02:32:03;;;;;;;7.05;3.50;;;11.80;99.90;;;;;;4786447;29;20515;-95
2022/06/10 02:34:29;;;;;;;5.53;2.88;;;11.80;99.90;;;;;;4781604;29;20053;-95
2022/06/10 02:37:08;;;;;;;9.90;3.40;;;11.70;99.90;;;;;;4796273;29;20054;-96
2022/06/10 02:40:03;;;;;;;8.00;3.38;;;11.70;99.90;;;;;;4798513;29;20050;-96
2022/06/10 02:42:59;;;;;;;8.95;3.53;;;11.70;99.90;;;;;;4799478;29;20061;-96
2022/06/10 02:45:26;;;;;;;7.15;3.30;;;12.20;99.90;;;;;;4815244;29;20071;-96
2022/06/10 02:48:00;;;;;;;12.45;5.20;;;11.40;99.90;;;;;;4815421;29;20062;-96
2022/06/10 02:50:26;;;;;;;11.05;3.38;;;12.10;99.90;;;;;;4800178;29;20175;-96
2022/06/10 02:52:53;;;;;;;10.43;3.83;;;11.50;99.90;;;;;;4799563;29;20051;-95
2022/06/10 02:55:22;;;;;;;6.43;3.53;;;11.70;99.90;;;;;;4800443;29;20065;-96
2022/06/10 03:03:51;;;;;;;17.05;4.57;;;11.60;99.90;;;;;;4815280;29;20069;-95
2022/06/10 03:06:32;;;;;;;6.90;3.78;;;11.70;99.90;;;;;;4829697;29;20034;-96
2022/06/10 03:09:18;;;;;;;11.73;4.25;;;11.70;99.90;;;;;;4814134;29;20124;-96
2022/06/10 03:12:10;;;;;;;9.93;3.38;;;11.70;99.90;;;;;;4810733;29;20054;-95
2022/06/10 04:02:11;;;;;;;11.85;3.15;;;11.80;99.90;;;;;;506862;27;20333;-84
2022/06/10 04:04:38;;;;;;;10.30;3.30;;;11.90;99.90;;;;;;4808037;29;20474;-88
2022/06/10 04:07:05;;;;;;;8.00;3.75;;;11.90;99.90;;;;;;4809286;29;20086;-88
2022/06/10 04:09:31;;;;;;;9.75;3.50;;;11.90;99.90;;;;;;4764790;29;20050;-87
2022/06/10 04:11:57;;;;;;;8.15;4.13;;;12.00;99.90;;;;;;4779580;29;20052;-90
2022/06/10 04:14:23;;;;;;;8.13;3.58;;;12.00;99.90;;;;;;4794803;29;20385;-89
2022/06/10 04:16:48;;;;;;;9.75;3.80;;;12.00;99.90;;;;;;4794595;29;20054;-88
2022/06/10 04:19:15;;;;;;;9.45;3.75;;;12.10;99.90;;;;;;4794282;29;20062;-90
2022/06/10 04:21:44;;;;;;;11.23;3.75;;;12.20;99.90;;;;;;4795121;29;20181;-89
2022/06/10 04:24:09;;;;;;;7.80;3.83;;;12.10;99.90;;;;;;4779433;29;20133;-87
2022/06/10 04:26:36;;;;;;;8.38;3.10;;;12.20;99.90;;;;;;4809271;29;20094;-88
2022/06/10 04:29:02;;;;;;;7.40;3.50;;;12.20;99.90;;;;;;4793709;29;20058;-86
2022/06/10 04:31:31;;;;;;;12.55;3.75;;;12.20;99.90;;;;;;4795310;29;20046;-88
2022/06/10 04:33:56;;;;;;;9.95;3.70;;;12.30;99.90;;;;;;4779793;29;20058;-88
2022/06/10 04:36:22;;;;;;;6.82;3.20;;;12.40;99.90;;;;;;4780263;29;20472;-89
2022/06/10 04:38:48;;;;;;;9.73;3.65;;;12.40;99.90;;;;;;4794265;29;20461;-90
2022/06/10 04:41:16;;;;;;;10.70;3.35;;;12.40;99.90;;;;;;4779676;29;20457;-87
2022/06/10 04:43:42;;;;;;;9.05;3.58;;;12.40;99.90;;;;;;4795086;29;20070;-89
2022/06/10 04:46:12;;;;;;;8.52;3.38;;;12.50;99.90;;;;;;4794431;29;20054;-90
2022/06/10 04:48:38;;;;;;;6.05;3.60;;;12.50;99.90;;;;;;4794760;29;20046;-87
2022/06/10 04:51:04;;;;;;;12.82;3.67;;;12.60;99.90;;;;;;4779615;29;20066;-88
2022/06/10 04:53:30;;;;;;;17.45;4.53;;;12.70;99.90;;;;;;4764698;29;20114;-87
2022/06/10 04:55:55;;;;;;;9.80;3.35;;;12.70;99.90;;;;;;4783115;29;20073;-88
2022/06/10 04:58:21;;;;;;;11.48;3.78;;;12.80;99.90;;;;;;4785588;29;20046;-86
2022/06/10 05:00:49;;;;;;;7.78;3.20;;;12.80;99.90;;;;;;4816896;29;20078;-87
2022/06/10 05:03:15;;;;;;;8.43;3.08;;;12.90;99.90;;;;;;4798539;29;20054;-88
2022/06/10 05:05:42;;;;;;;10.93;3.40;;;13.00;99.90;;;;;;4812545;29;20220;-87
2022/06/10 05:08:11;;;;;;;11.25;3.22;;;13.10;99.90;;;;;;4799465;29;20054;-87
2022/06/10 05:10:38;;;;;;;10.70;3.10;;;13.20;99.90;;;;;;4800788;29;20058;-89
2022/06/10 05:13:04;;;;;;;7.13;3.20;;;13.40;99.90;;;;;;4802356;29;20078;-86
2022/06/10 05:15:30;;;;;;;10.75;3.55;;;13.60;99.90;;;;;;4812268;29;20051;-89
2022/06/10 05:17:58;;;;;;;7.88;2.95;;;13.80;99.90;;;;;;4764262;29;20062;-90
2022/06/10 05:20:28;;;;;;;7.68;3.10;;;13.80;99.90;;;;;;4796918;29;20050;-86
2022/06/10 05:22:54;;;;;;;14.48;3.35;;;14.00;99.90;;;;;;4819091;29;20050;-87
2022/06/10 05:25:19;;;;;;;6.03;2.85;;;14.00;99.90;;;;;;4795428;29;20182;-87
2022/06/10 05:27:45;;;;;;;7.22;2.88;;;14.10;99.90;;;;;;4794143;29;20112;-88
2022/06/10 05:30:19;;;;;;;14.30;3.08;;;14.20;99.90;;;;;;4793922;29;20058;-90
2022/06/10 05:32:45;;;;;;;9.38;3.10;;;14.20;99.90;;;;;;4793928;29;20118;-88
2022/06/10 05:35:12;;;;;;;12.85;2.90;;;14.20;99.90;;;;;;4778547;29;20221;-88
2022/06/10 05:37:38;;;;;;;8.52;3.03;;;14.30;99.90;;;;;;4793922;29;20066;-88
2022/06/10 05:40:04;;;;;;;7.93;2.72;;;14.30;99.90;;;;;;4793396;29;20047;-89
2022/06/10 05:42:35;;;;;;;6.60;3.03;;;14.40;99.90;;;;;;4793632;29;20090;-89
2022/06/10 05:45:03;;;;;;;8.70;3.10;;;13.80;99.90;;;;;;4778360;29;20579;-90
2022/06/10 05:47:33;;;;;;;6.85;2.67;;;14.50;99.90;;;;;;4793710;29;20068;-87
2022/06/10 05:50:02;;;;;;;8.80;2.80;;;14.50;99.90;;;;;;4808603;29;20060;-87
2022/06/10 05:52:30;;;;;;;8.70;2.75;;;14.50;99.90;;;;;;4793725;29;20050;-89
2022/06/10 05:54:58;;;;;;;12.00;2.60;;;14.60;99.90;;;;;;4793585;29;20051;-90
2022/06/10 05:57:25;;;;;;;8.38;2.78;;;14.70;99.90;;;;;;4794612;29;20145;-90
2022/06/10 05:59:59;;;;;;;11.27;2.60;;;14.80;99.90;;;;;;4808873;29;20114;-86
2022/06/10 06:02:26;;;;;;;9.27;3.13;;;14.70;99.90;;;;;;4779418;29;20399;-89
2022/06/10 06:04:52;;;;;;;9.45;3.20;;;14.70;99.90;;;;;;4808774;29;20054;-90
2022/06/10 06:07:22;;;;;;;7.75;3.20;;;14.90;99.90;;;;;;4778578;29;20051;-86
2022/06/10 06:09:48;;;;;;;11.00;3.20;;;14.90;99.90;;;;;;4793614;29;20510;-87
2022/06/10 06:12:17;;;;;;;8.80;3.10;;;15.00;99.90;;;;;;4793592;29;20081;-88
2022/06/10 06:14:43;;;;;;;15.93;3.17;;;14.90;99.90;;;;;;4795405;29;20059;-87
2022/06/10 06:17:11;;;;;;;9.18;3.00;;;15.10;99.90;;;;;;4782141;29;20416;-88
2022/06/10 06:19:37;;;;;;;12.05;3.38;;;15.10;99.90;;;;;;4796369;29;20058;-88
2022/06/10 06:22:09;;;;;;;8.20;3.63;;;15.20;99.90;;;;;;4811957;29;20058;-87
2022/06/10 06:24:41;;;;;;;9.10;3.10;;;14.60;99.90;;;;;;4797859;29;20058;-87
2022/06/10 06:27:14;;;;;;;7.97;2.80;;;15.40;99.90;;;;;;4797202;29;20069;-87
2022/06/10 06:29:43;;;;;;;8.20;2.72;;;15.40;99.90;;;;;;4796877;29;20054;-88
2022/06/10 06:32:09;;;;;;;5.60;2.60;;;15.60;99.90;;;;;;4796690;29;20468;-89
2022/06/10 06:34:37;;;;;;;13.07;3.92;;;15.50;99.90;;;;;;4787216;29;20058;-89
2022/06/10 06:37:03;;;;;;;9.60;3.10;;;15.70;99.90;;;;;;4803249;29;20081;-88
2022/06/10 06:39:37;;;;;;;7.85;3.00;;;15.90;99.90;;;;;;4783694;29;20082;-91
2022/06/10 06:42:06;;;;;;;11.50;4.40;;;15.80;99.90;;;;;;4811187;29;20058;-87
2022/06/10 06:44:32;;;;;;;10.00;3.10;;;15.80;99.90;;;;;;4796432;29;20151;-88
2022/06/10 06:46:58;;;;;;;11.27;3.60;;;16.00;99.90;;;;;;4796071;29;20145;-89
2022/06/10 06:49:28;;;;;;;11.10;3.40;;;16.40;99.90;;;;;;4781920;29;20119;-90
2022/06/10 06:51:59;;;;;;;12.60;3.75;;;17.00;99.90;;;;;;4796434;29;20065;-88
2022/06/10 06:54:45;;;;;;;8.20;3.67;;;16.60;99.90;;;;;;4796615;29;20097;-92
2022/06/10 06:57:11;;;;;;;8.90;3.10;;;15.80;99.90;;;;;;4796687;29;20113;-90
2022/06/10 06:59:38;;;;;;;10.02;3.17;;;16.30;99.90;;;;;;4796672;29;20100;-89
2022/06/10 07:02:07;;;;;;;12.30;3.92;;;16.20;99.90;;;;;;4795954;29;20058;-87
2022/06/10 07:04:40;;;;;;;9.88;3.70;;;16.20;99.90;;;;;;4796009;29;20518;-91
2022/06/10 07:07:06;;;;;;;8.73;3.92;;;16.80;99.90;;;;;;4795651;29;20060;-89
2022/06/10 07:09:32;;;;;;;10.73;4.30;;;16.00;99.90;;;;;;4795957;29;20058;-90
2022/06/10 07:11:58;;;;;;;9.15;4.00;;;15.90;99.90;;;;;;4796364;29;20050;-89
2022/06/10 07:14:24;;;;;;;14.27;4.43;;;16.00;99.90;;;;;;4766561;29;20096;-88
2022/06/10 07:16:53;;;;;;;10.88;4.15;;;16.00;99.90;;;;;;4796586;29;20424;-87
2022/06/10 07:19:22;;;;;;;11.32;3.80;;;16.10;99.90;;;;;;4782013;29;20057;-90
2022/06/10 07:21:49;;;;;;;11.90;3.97;;;14.90;99.90;;;;;;4795813;29;20061;-90
2022/06/10 07:24:15;;;;;;;11.85;3.72;;;16.30;99.90;;;;;;4795693;29;20085;-91
2022/06/10 07:26:41;;;;;;;12.32;3.70;;;16.30;99.90;;;;;;4795993;29;20046;-89
2022/06/10 07:29:10;;;;;;;10.07;3.47;;;16.50;99.90;;;;;;4780872;29;20116;-88
2022/06/10 07:31:39;;;;;;;13.52;3.90;;;16.60;99.90;;;;;;4781673;29;20057;-87
2022/06/10 07:34:06;;;;;;;11.50;4.03;;;16.70;99.90;;;;;;4800177;29;20100;-87
2022/06/10 07:36:32;;;;;;;8.30;3.70;;;16.80;99.90;;;;;;4803317;29;20050;-87
2022/06/10 07:38:58;;;;;;;9.38;4.13;;;16.80;99.90;;;;;;4776822;29;20119;-87
2022/06/10 07:44:08;;;;;;;10.83;4.43;;;16.70;99.90;;;;;;4806789;29;20089;-85
2022/06/10 07:46:34;;;;;;;8.27;4.50;;;16.60;99.90;;;;;;4804400;29;20050;-88
2022/06/10 07:49:01;;;;;;;8.50;4.10;;;16.70;99.90;;;;;;4799279;29;20485;-86
2022/06/10 07:51:27;;;;;;;10.32;4.72;;;16.50;99.90;;;;;;4795475;29;20499;-88
2022/06/10 07:53:53;;;;;;;10.05;4.38;;;16.70;99.90;;;;;;4795786;29;20058;-89
2022/06/10 07:56:22;;;;;;;9.82;4.90;;;16.70;99.90;;;;;;4796118;29;20463;-88
2022/06/10 07:58:57;;;;;;;10.45;4.70;;;16.60;99.90;;;;;;4795573;29;20054;-88
2022/06/10 08:01:28;;;;;;;;;;;16.70;99.90;;;;;;4784166;29;20061;-87
2022/06/10 08:04:02;;;;;;;8.20;4.63;;;16.70;99.90;;;;;;4803375;29;19985;-88
2022/06/10 08:06:39;;;;;;;8.60;4.35;;;16.70;99.90;;;;;;4805676;29;20082;-88
2022/06/10 08:09:06;;;;;;;9.02;5.22;;;16.80;99.90;;;;;;4803674;29;20062;-88
2022/06/10 08:11:33;;;;;;;8.98;4.32;;;17.00;99.90;;;;;;4804270;29;20083;-87
2022/06/10 08:13:59;;;;;;;13.23;4.63;;;17.30;99.90;;;;;;4787797;29;20050;-89
2022/06/10 08:16:27;;;;;;;8.05;4.57;;;17.40;99.90;;;;;;4801960;29;20149;-89
2022/06/10 08:18:53;;;;;;;9.52;3.95;;;17.20;99.90;;;;;;4802393;29;20388;-89
2022/06/10 08:24:06;;;;;;;9.23;4.23;;;17.10;99.90;;;;;;4809477;29;20065;-88
2022/06/10 08:26:32;;;;;;;7.75;4.35;;;17.10;99.90;;;;;;4794299;29;20057;-88
2022/06/10 08:28:59;;;;;;;9.57;4.70;;;17.00;99.90;;;;;;4794805;29;20062;-91
2022/06/10 08:31:32;;;;;;;6.25;4.60;;;16.80;99.90;;;;;;4795097;29;20403;-88
2022/06/10 08:34:11;;;;;;;9.60;4.55;;;16.90;99.90;;;;;;4780706;29;20588;-87
2022/06/10 08:36:37;;;;;;;13.23;4.90;;;16.70;99.90;;;;;;4794592;29;20424;-87
2022/06/10 08:39:04;;;;;;;9.48;4.80;;;16.70;99.90;;;;;;4794881;29;20069;-88
2022/06/10 08:41:53;;;;;;;13.52;5.20;;;15.80;99.90;;;;;;4794740;29;20058;-91
2022/06/10 08:44:35;;;;;;;13.13;5.00;;;17.00;99.90;;;;;;4789636;29;20046;-89
2022/06/10 08:47:21;;;;;;;13.32;5.43;;;16.80;99.90;;;;;;4809740;29;20122;-88
2022/06/10 08:50:32;;;;;;;14.43;5.35;;;16.80;99.90;;;;;;4809632;29;20499;-87
2022/06/10 08:53:16;;;;;;;12.25;5.20;;;16.80;99.90;;;;;;4776609;29;20437;-88
2022/06/10 08:55:55;;;;;;;11.25;5.10;;;16.90;99.90;;;;;;4811167;29;20050;-90
2022/06/10 08:58:29;;;;;;;11.07;5.07;;;17.10;99.90;;;;;;4794402;29;20477;-89
2022/06/10 09:01:00;;;;;;;9.75;4.72;;;17.10;99.90;;;;;;4794997;29;20125;-90
2022/06/10 09:03:41;;;;;;;11.73;4.53;;;17.30;99.90;;;;;;4793545;29;20266;-86
2022/06/10 09:06:15;;;;;;;10.55;4.95;;;17.30;99.90;;;;;;4794176;29;20365;-89
2022/06/10 09:08:44;;;;;;;7.88;4.55;;;17.20;99.90;;;;;;4794028;29;20142;-90
2022/06/10 09:11:47;;;;;;;13.02;5.25;;;17.20;99.90;;;;;;4794244;29;20109;-89
2022/06/10 09:14:27;;;;;;;8.82;4.80;;;17.00;99.90;;;;;;4825567;29;20061;-89
2022/06/10 09:17:25;;;;;;;9.50;4.60;;;17.00;99.90;;;;;;4823876;29;20050;-88
2022/06/10 09:20:18;;;;;;;8.27;5.05;;;17.10;99.90;;;;;;4777930;29;20129;-89
2022/06/10 09:23:03;;;;;;;9.30;4.93;;;17.20;99.90;;;;;;4793601;29;20050;-88
2022/06/10 09:25:41;;;;;;;10.18;5.43;;;17.60;99.90;;;;;;4808497;29;20307;-88
2022/06/10 09:28:08;;;;;;;12.43;5.45;;;17.00;99.90;;;;;;4793587;29;20091;-91
2022/06/10 09:30:56;;;;;;;10.85;5.47;;;18.40;99.90;;;;;;4793410;29;20115;-89
2022/06/10 09:34:12;;;;;;;11.52;5.57;;;19.00;99.90;;;;;;4794065;29;20081;-92
2022/06/10 09:36:55;;;;;;;10.52;5.13;;;19.60;99.90;;;;;;4808774;29;20053;-88
2022/06/10 09:42:58;;;;;;;10.55;4.78;;;19.30;99.90;;;;;;4825172;29;20399;-88
2022/06/10 09:45:45;;;;;;;9.13;4.88;;;19.30;99.90;;;;;;4829004;29;20136;-90
2022/06/10 09:48:30;;;;;;;8.93;4.05;;;18.80;99.90;;;;;;4811217;29;20491;-90
2022/06/10 09:51:17;;;;;;;8.98;4.53;;;18.80;99.90;;;;;;4830089;29;20110;-89
2022/06/10 09:54:00;;;;;;;8.80;4.65;;;18.40;99.90;;;;;;4830103;29;20049;-86
2022/06/10 09:56:47;;;;;;;9.82;5.13;;;18.30;99.90;;;;;;4798644;29;20511;-85
2022/06/10 09:59:47;;;;;;;10.55;4.90;;;18.20;99.90;;;;;;4820721;29;20057;-85
2022/06/10 10:02:45;;;;;;;11.70;4.80;;;18.10;99.90;;;;;;4788641;29;20058;-89
2022/06/10 10:05:19;;;;;;;10.70;4.50;;;18.20;99.90;;;;;;4813736;29;20061;-88
2022/06/10 10:08:17;;;;;;;9.70;4.57;;;18.40;99.90;;;;;;4813736;29;20096;-89
2022/06/10 10:10:53;;;;;;;12.30;5.20;;;18.40;99.90;;;;;;4792737;29;20464;-89
2022/06/10 10:13:39;;;;;;;10.57;4.88;;;18.50;99.90;;;;;;4778092;29;20140;-89
2022/06/10 10:16:26;;;;;;;8.80;4.80;;;18.70;99.90;;;;;;4809266;29;20042;-89
2022/06/10 10:19:11;;;;;;;13.68;4.70;;;18.80;99.90;;;;;;4831883;29;20058;-87
2022/06/10 10:21:56;;;;;;;16.98;5.53;;;18.60;99.90;;;;;;4817340;29;20137;-90
2022/06/10 10:24:26;;;;;;;7.70;4.93;;;18.40;99.90;;;;;;4834873;29;20404;-89
2022/06/10 10:26:58;;;;;;;9.05;4.35;;;18.80;99.90;;;;;;4833854;29;20411;-89
2022/06/10 10:29:38;;;;;;;14.20;5.32;;;18.90;99.90;;;;;;4818250;29;20507;-88
2022/06/10 10:32:14;;;;;;;11.85;5.35;;;18.70;99.90;;;;;;4818352;29;20061;-88
2022/06/10 10:34:46;;;;;;;12.20;5.80;;;19.00;99.90;;;;;;4818253;29;20057;-89
2022/06/10 10:37:27;;;;;;;11.32;5.45;;;19.10;99.90;;;;;;4816696;29;20058;-88
2022/06/10 10:40:00;;;;;;;11.13;5.65;;;19.50;99.90;;;;;;4831123;29;20057;-87
2022/06/10 10:42:41;;;;;;;10.23;5.57;;;19.70;99.90;;;;;;4819869;29;20065;-89
2022/06/10 10:45:26;;;;;;;10.63;5.05;;;19.50;99.90;;;;;;4819878;29;20062;-88
2022/06/10 10:47:58;;;;;;;7.82;4.78;;;19.30;99.90;;;;;;4815482;29;20399;-88
2022/06/10 10:50:33;;;;;;;13.80;5.00;;;19.40;99.90;;;;;;4821180;29;20089;-88
2022/06/10 10:53:19;;;;;;;13.38;5.00;;;19.50;99.90;;;;;;4821182;29;20130;-86
2022/06/10 10:55:51;;;;;;;11.25;5.20;;;19.70;99.90;;;;;;4814695;29;20058;-89
2022/06/10 10:58:29;;;;;;;9.20;4.80;;;19.70;99.90;;;;;;4815024;29;20081;-87
2022/06/10 11:04:02;;;;;;;12.55;4.97;;;19.30;99.90;;;;;;4829537;29;20499;-86
2022/06/10 11:06:34;;;;;;;8.45;4.70;;;19.10;99.90;;;;;;4800396;29;20077;-86
2022/06/10 11:09:17;;;;;;;12.75;5.15;;;19.50;99.90;;;;;;4816364;29;20117;-87
2022/06/10 11:11:44;;;;;;;9.35;5.25;;;19.10;99.90;;;;;;4820096;29;20114;-85
2022/06/10 11:14:24;;;;;;;6.68;4.18;;;19.30;99.90;;;;;;4832450;29;20128;-88
2022/06/10 11:17:12;;;;;;;9.25;4.57;;;19.50;99.90;;;;;;4813503;29;20206;-90
2022/06/10 11:19:49;;;;;;;9.88;5.00;;;19.60;99.90;;;;;;4828062;29;20487;-87
2022/06/10 11:22:35;;;;;;;7.28;4.53;;;19.50;99.90;;;;;;4828595;29;20407;-88
2022/06/10 11:25:04;;;;;;;10.52;4.35;;;19.50;99.90;;;;;;4813973;29;20053;-87
2022/06/10 11:28:14;;;;;;;7.32;4.18;;;19.50;99.90;;;;;;4828267;29;20045;-91
2022/06/10 11:30:49;;;;;;;6.35;4.07;;;19.40;99.90;;;;;;4828370;29;20050;-88
2022/06/10 11:33:25;;;;;;;;;;;19.40;99.90;;;;;;4813594;29;20088;-89
2022/06/10 11:36:14;;;;;;;6.32;3.95;;;19.30;99.90;;;;;;4813443;29;19935;-87
2022/06/10 11:39:23;;;;;;;7.85;4.03;;;19.20;99.90;;;;;;4814773;29;20145;-89
2022/06/10 11:42:33;;;;;;;5.93;3.60;;;19.10;99.90;;;;;;4813772;29;20542;-90
2022/06/10 11:46:18;;;;;;;7.55;3.60;;;18.90;99.90;;;;;;4806037;29;20552;-88
2022/06/10 11:49:19;;;;;;;6.77;3.80;;;18.90;99.90;;;;;;4792793;29;20046;-89
2022/06/10 11:52:09;;;;;;;8.57;3.70;;;18.70;99.90;;;;;;4791045;29;20051;-87
2022/06/10 11:54:43;;;;;;;8.68;3.78;;;18.90;99.90;;;;;;4775896;29;20145;-88
2022/06/10 12:00:20;;;;;;;9.30;3.42;;;19.50;99.90;;;;;;4823910;29;20054;-87
2022/06/10 12:03:00;;;;;;;6.78;3.47;;;19.70;99.90;;;;;;4826989;29;20518;-88
2022/06/10 12:06:03;;;;;;;7.28;3.60;;;19.40;99.90;;;;;;4827849;29;20095;-89
2022/06/10 12:12:23;;;;;;;5.95;3.15;;;19.60;99.90;;;;;;4810738;29;21138;-88
2022/06/10 12:15:02;;;;;;;5.05;3.28;;;19.90;99.90;;;;;;4812436;29;20198;-88
2022/06/10 12:17:40;;;;;;;8.52;3.90;;;20.40;99.90;;;;;;4812073;29;20062;-88
2022/06/10 12:20:31;;;;;;;8.82;3.88;;;20.70;99.90;;;;;;4823138;29;20058;-84
2022/06/10 12:23:15;;;;;;;6.22;3.38;;;20.80;99.90;;;;;;4828461;29;20046;-88
2022/06/10 12:26:08;;;;;;;10.23;3.95;;;20.60;99.90;;;;;;4812893;29;20585;-88
2022/06/10 12:28:58;;;;;;;6.15;3.38;;;20.80;99.90;;;;;;4828076;29;20579;-89
2022/06/10 12:31:45;;;;;;;9.93;3.95;;;20.70;99.90;;;;;;4811815;29;20408;-89
2022/06/10 12:34:54;;;;;;;10.38;3.78;;;20.60;99.90;;;;;;4827499;29;20050;-89
2022/06/10 12:37:56;;;;;;;10.18;4.20;;;20.50;99.90;;;;;;4827796;29;20046;-88
2022/06/10 12:44:13;;;;;;;5.60;3.33;;;20.10;99.90;;;;;;4769665;30;20104;-88
2022/06/10 12:46:43;;;;;;;9.43;3.47;;;20.20;99.90;;;;;;4764478;29;20058;-89
2022/06/10 12:49:41;;;;;;;8.27;3.50;;;20.60;99.90;;;;;;4790165;29;20119;-91
2022/06/10 12:56:36;;;;;;;8.20;3.35;;;20.90;99.90;;;;;;4786805;30;20103;-90
2022/06/10 13:03:20;;;;;;;8.35;3.20;;;21.00;99.90;;;;;;4769089;30;20470;-90
2022/06/10 13:07:24;;;;;;;8.52;3.13;;;21.10;99.90;;;;;;4733592;30;20053;-91
2022/06/10 13:09:53;;;;;;;7.55;2.83;;;20.60;99.90;;;;;;4718976;30;20108;-88
2022/06/10 13:12:42;;;;;;;7.65;2.85;;;21.20;99.90;;;;;;4732802;30;20052;-91
2022/06/10 13:15:29;;;;;;;6.15;3.22;;;21.30;99.90;;;;;;4704263;30;20056;-90
2022/06/10 13:22:15;;;;;;;6.43;3.00;;;21.40;99.90;;;;;;4768186;30;20089;-89
2022/06/10 13:25:26;;;;;;;7.82;3.08;;;21.30;99.90;;;;;;4799695;29;20431;-90
2022/06/10 13:28:37;;;;;;;8.00;3.70;;;21.20;99.90;;;;;;4791201;29;20051;-90
2022/06/10 13:31:30;;;;;;;7.05;4.18;;;20.90;99.90;;;;;;4788601;29;20129;-88
2022/06/10 13:34:32;;;;;;;8.13;3.67;;;20.90;99.90;;;;;;4793768;29;20058;-90
2022/06/10 13:37:39;;;;;;;11.02;4.00;;;20.80;99.90;;;;;;4792916;29;20138;-90
2022/06/10 13:44:16;;;;;;;7.18;4.40;;;21.10;99.90;;;;;;4767960;30;20060;-89
2022/06/10 13:54:29;;;;;;;6.60;2.83;;;22.60;99.90;;;;;;4824254;29;20088;-90
2022/06/10 13:57:18;;;;;;;4.72;2.78;;;22.60;99.90;;;;;;4792447;29;20062;-90
2022/06/10 14:08:11;;;;;;;;;;;;;;;;;;;;;
2022/06/10 14:19:53;;;;;;;;;;;;;;;;;;;;;
2022/06/10 14:23:17;;;;;;;2.80;1.67;;;22.10;99.90;;;;;;4758531;30;20059;-89
2022/06/10 14:26:19;;;;;;;4.05;2.13;;;22.20;99.90;;;;;;4757803;30;20055;-90
2022/06/10 14:29:13;;;;;;;4.22;1.80;;;22.40;99.90;;;;;;4751464;30;20733;-89
2022/06/10 14:35:32;;;;;;;3.67;2.05;;;23.30;99.90;;;;;;4750329;30;20509;-88
2022/06/10 14:38:18;;;;;;;5.13;1.90;;;23.00;99.90;;;;;;4722609;30;20048;-88
2022/06/10 14:41:10;;;;;;;4.80;1.80;;;22.90;99.90;;;;;;4771003;30;20075;-86
2022/06/10 14:44:20;;;;;;;3.65;1.65;;;22.90;99.90;;;;;;4765790;30;20062;-87
2022/06/10 14:47:14;;;;;;;6.53;2.00;;;23.10;99.90;;;;;;4758423;30;20055;-89
2022/06/10 14:50:29;;;;;;;5.20;1.80;;;23.40;99.90;;;;;;4740539;30;20401;-91
2022/06/10 15:04:15;;;;;;;10.90;2.25;;;22.70;99.90;;;;;;4707989;30;20569;-88
2022/06/10 15:10:38;;;;;;;5.50;2.20;;;22.50;99.90;;;;;;4721022;30;20045;-88
2022/06/10 15:17:04;;;;;;;5.15;2.15;;;22.50;99.90;;;;;;4826200;29;20415;-88
2022/06/10 15:19:39;;;;;;;5.50;1.90;;;22.50;99.90;;;;;;4782393;29;20865;-89
2022/06/10 15:29:39;;;;;;;5.60;1.80;;;22.20;99.90;;;;;;4826442;29;20055;-88
2022/06/10 15:32:12;;;;;;;5.40;2.30;;;22.00;99.90;;;;;;4779961;29;20062;-89
2022/06/10 15:43:06;;;;;;;6.32;2.60;;;22.00;99.90;;;;;;4827859;29;20555;-88
2022/06/10 15:45:39;;;;;;;7.45;2.72;;;22.20;99.90;;;;;;4813050;29;20171;-90
2022/06/10 15:48:05;;;;;;;4.60;2.17;;;22.00;99.90;;;;;;4811213;29;20057;-87
2022/06/10 15:50:51;;;;;;;5.40;2.47;;;22.20;99.90;;;;;;4827441;29;20050;-89
2022/06/10 15:53:30;;;;;;;6.05;2.42;;;22.10;99.90;;;;;;4812629;29;20053;-89
2022/06/10 15:58:51;;;;;;;5.00;1.73;;;22.30;99.90;;;;;;4826996;29;20058;-89
2022/06/10 16:01:19;;;;;;;4.88;2.00;;;22.30;99.90;;;;;;4812187;29;20050;-88
2022/06/10 16:03:46;;;;;;;5.50;2.10;;;22.80;99.90;;;;;;4811853;29;20057;-89
2022/06/10 16:06:18;;;;;;;6.63;2.28;;;22.40;99.90;;;;;;4827278;29;20119;-89
2022/06/10 16:08:53;;;;;;;7.75;2.40;;;22.20;99.90;;;;;;4822902;29;20057;-89
2022/06/10 16:11:20;;;;;;;5.38;2.17;;;22.10;99.90;;;;;;4793845;29;20066;-89
2022/06/10 16:13:48;;;;;;;3.38;1.70;;;22.00;99.90;;;;;;4793474;29;20057;-85
2022/06/10 16:16:51;;;;;;;4.07;2.00;;;22.20;99.90;;;;;;4796875;29;20046;-87